sensor_id;sensor_type;location;lat;lon;timestamp;P1;durP1;ratioP1;P2;durP2;ratioP2
17614;SDS011;8926;49.720;6.576;2023-08-07T00:00:53;3.03;;;1.50;;
17614;SDS011;8926;49.720;6.576;2023-08-07T00:03:19;1.63;;;1.30;;
17614;SDS011;8926;49.720;6.576;2023-08-07T00:05:47;1.80;;;1.20;;
17614;SDS011;8926;49.720;6.576;2023-08-07T00:08:13;1.40;;;1.17;;
17614;SDS011;8926;49.720;6.576;2023-08-07T00:10:39;1.43;;;0.93;;
17614;SDS011;8926;49.720;6.576;2023-08-07T00:13:04;1.47;;;1.37;;
17614;SDS011;8926;49.720;6.576;2023-08-07T00:15:30;2.77;;;1.70;;
17614;SDS011;8926;49.720;6.576;2023-08-07T00:17:55;1.40;;;1.30;;
17614;SDS011;8926;49.720;6.576;2023-08-07T00:20:21;1.77;;;1.10;;
17614;SDS011;8926;49.720;6.576;2023-08-07T00:22:46;1.83;;;1.17;;
17614;SDS011;8926;49.720;6.576;2023-08-07T00:25:11;2.90;;;1.57;;
17614;SDS011;8926;49.720;6.576;2023-08-07T00:27:37;2.23;;;1.13;;
17614;SDS011;8926;49.720;6.576;2023-08-07T00:30:02;1.97;;;1.20;;
17614;SDS011;8926;49.720;6.576;2023-08-07T00:32:28;1.43;;;1.10;;
17614;SDS011;8926;49.720;6.576;2023-08-07T00:34:53;1.50;;;1.20;;
17614;SDS011;8926;49.720;6.576;2023-08-07T00:37:18;3.93;;;1.40;;
17614;SDS011;8926;49.720;6.576;2023-08-07T00:39:43;1.50;;;1.40;;
17614;SDS011;8926;49.720;6.576;2023-08-07T00:42:09;2.17;;;1.40;;
17614;SDS011;8926;49.720;6.576;2023-08-07T00:44:34;2.10;;;1.43;;
17614;SDS011;8926;49.720;6.576;2023-08-07T00:46:59;1.60;;;1.27;;
17614;SDS011;8926;49.720;6.576;2023-08-07T00:49:25;2.97;;;1.60;;
17614;SDS011;8926;49.720;6.576;2023-08-07T00:51:51;2.33;;;1.50;;
17614;SDS011;8926;49.720;6.576;2023-08-07T00:54:18;2.70;;;1.60;;
17614;SDS011;8926;49.720;6.576;2023-08-07T00:56:44;1.70;;;1.40;;
17614;SDS011;8926;49.720;6.576;2023-08-07T00:59:10;2.80;;;1.80;;
17614;SDS011;8926;49.720;6.576;2023-08-07T01:01:36;3.83;;;1.53;;
17614;SDS011;8926;49.720;6.576;2023-08-07T01:04:01;4.23;;;1.77;;
17614;SDS011;8926;49.720;6.576;2023-08-07T01:06:26;1.53;;;1.40;;
17614;SDS011;8926;49.720;6.576;2023-08-07T01:08:52;2.63;;;1.43;;
17614;SDS011;8926;49.720;6.576;2023-08-07T01:11:21;3.23;;;1.80;;
17614;SDS011;8926;49.720;6.576;2023-08-07T01:16:43;1.83;;;1.27;;
17614;SDS011;8926;49.720;6.576;2023-08-07T01:19:33;1.70;;;1.23;;
17614;SDS011;8926;49.720;6.576;2023-08-07T01:22:05;1.77;;;1.50;;
17614;SDS011;8926;49.720;6.576;2023-08-07T01:24:38;1.77;;;1.20;;
17614;SDS011;8926;49.720;6.576;2023-08-07T01:29:44;0.90;;;0.90;;
17614;SDS011;8926;49.720;6.576;2023-08-07T01:35:36;1.00;;;0.90;;
17614;SDS011;8926;49.720;6.576;2023-08-07T01:38:12;2.10;;;1.27;;
17614;SDS011;8926;49.720;6.576;2023-08-07T01:40:39;1.00;;;1.00;;
17614;SDS011;8926;49.720;6.576;2023-08-07T01:43:05;1.80;;;1.33;;
17614;SDS011;8926;49.720;6.576;2023-08-07T01:45:30;1.43;;;1.00;;
17614;SDS011;8926;49.720;6.576;2023-08-07T01:47:56;1.00;;;0.90;;
17614;SDS011;8926;49.720;6.576;2023-08-07T01:50:21;1.07;;;0.97;;
17614;SDS011;8926;49.720;6.576;2023-08-07T01:52:47;2.27;;;1.60;;
17614;SDS011;8926;49.720;6.576;2023-08-07T01:55:13;1.43;;;1.20;;
17614;SDS011;8926;49.720;6.576;2023-08-07T01:57:40;1.10;;;1.10;;
17614;SDS011;8926;49.720;6.576;2023-08-07T02:00:05;0.90;;;0.90;;
17614;SDS011;8926;49.720;6.576;2023-08-07T02:02:31;1.10;;;1.10;;
17614;SDS011;8926;49.720;6.576;2023-08-07T02:04:56;1.40;;;1.00;;
17614;SDS011;8926;49.720;6.576;2023-08-07T02:07:21;1.17;;;1.07;;
17614;SDS011;8926;49.720;6.576;2023-08-07T02:09:47;0.90;;;0.90;;
17614;SDS011;8926;49.720;6.576;2023-08-07T02:12:12;1.83;;;1.00;;
17614;SDS011;8926;49.720;6.576;2023-08-07T02:14:37;0.90;;;0.90;;
17614;SDS011;8926;49.720;6.576;2023-08-07T02:17:03;0.90;;;0.90;;
17614;SDS011;8926;49.720;6.576;2023-08-07T02:19:28;0.87;;;0.87;;
17614;SDS011;8926;49.720;6.576;2023-08-07T02:21:53;0.70;;;0.70;;
17614;SDS011;8926;49.720;6.576;2023-08-07T02:24:19;1.00;;;0.90;;
17614;SDS011;8926;49.720;6.576;2023-08-07T02:26:45;0.80;;;0.80;;
17614;SDS011;8926;49.720;6.576;2023-08-07T02:29:10;0.83;;;0.73;;
17614;SDS011;8926;49.720;6.576;2023-08-07T02:31:35;1.13;;;1.03;;
17614;SDS011;8926;49.720;6.576;2023-08-07T02:34:00;1.13;;;0.83;;
17614;SDS011;8926;49.720;6.576;2023-08-07T02:36:26;0.70;;;0.70;;
17614;SDS011;8926;49.720;6.576;2023-08-07T02:38:51;1.20;;;1.10;;
17614;SDS011;8926;49.720;6.576;2023-08-07T02:41:16;1.10;;;1.00;;
17614;SDS011;8926;49.720;6.576;2023-08-07T02:43:42;0.90;;;0.90;;
17614;SDS011;8926;49.720;6.576;2023-08-07T02:46:07;1.20;;;1.17;;
17614;SDS011;8926;49.720;6.576;2023-08-07T02:48:33;0.90;;;0.90;;
17614;SDS011;8926;49.720;6.576;2023-08-07T02:50:58;0.93;;;0.87;;
17614;SDS011;8926;49.720;6.576;2023-08-07T02:53:23;1.60;;;1.00;;
17614;SDS011;8926;49.720;6.576;2023-08-07T02:55:49;0.90;;;0.90;;
17614;SDS011;8926;49.720;6.576;2023-08-07T02:58:14;0.80;;;0.80;;
17614;SDS011;8926;49.720;6.576;2023-08-07T03:00:39;1.10;;;1.10;;
17614;SDS011;8926;49.720;6.576;2023-08-07T03:03:05;0.80;;;0.80;;
17614;SDS011;8926;49.720;6.576;2023-08-07T03:05:30;1.03;;;0.93;;
17614;SDS011;8926;49.720;6.576;2023-08-07T03:07:55;1.30;;;1.00;;
17614;SDS011;8926;49.720;6.576;2023-08-07T03:10:21;0.90;;;0.90;;
17614;SDS011;8926;49.720;6.576;2023-08-07T03:12:46;0.80;;;0.80;;
17614;SDS011;8926;49.720;6.576;2023-08-07T03:15:11;1.60;;;1.30;;
17614;SDS011;8926;49.720;6.576;2023-08-07T03:17:37;0.80;;;0.80;;
17614;SDS011;8926;49.720;6.576;2023-08-07T03:20:02;0.90;;;0.90;;
17614;SDS011;8926;49.720;6.576;2023-08-07T03:22:29;0.97;;;0.97;;
17614;SDS011;8926;49.720;6.576;2023-08-07T03:24:54;1.43;;;1.20;;
17614;SDS011;8926;49.720;6.576;2023-08-07T03:27:19;1.10;;;1.00;;
17614;SDS011;8926;49.720;6.576;2023-08-07T03:29:45;1.00;;;1.00;;
17614;SDS011;8926;49.720;6.576;2023-08-07T03:32:10;0.80;;;0.80;;
17614;SDS011;8926;49.720;6.576;2023-08-07T03:34:35;1.00;;;1.00;;
17614;SDS011;8926;49.720;6.576;2023-08-07T03:37:00;1.17;;;1.00;;
17614;SDS011;8926;49.720;6.576;2023-08-07T03:39:26;1.60;;;1.17;;
17614;SDS011;8926;49.720;6.576;2023-08-07T03:41:51;1.17;;;1.10;;
17614;SDS011;8926;49.720;6.576;2023-08-07T03:44:16;1.00;;;0.90;;
17614;SDS011;8926;49.720;6.576;2023-08-07T03:46:42;2.00;;;1.33;;
17614;SDS011;8926;49.720;6.576;2023-08-07T03:49:07;1.10;;;1.10;;
17614;SDS011;8926;49.720;6.576;2023-08-07T03:51:32;0.90;;;0.90;;
17614;SDS011;8926;49.720;6.576;2023-08-07T03:53:58;1.20;;;1.10;;
17614;SDS011;8926;49.720;6.576;2023-08-07T03:56:23;0.90;;;0.90;;
17614;SDS011;8926;49.720;6.576;2023-08-07T03:58:48;2.17;;;1.10;;
17614;SDS011;8926;49.720;6.576;2023-08-07T04:01:15;1.00;;;1.00;;
17614;SDS011;8926;49.720;6.576;2023-08-07T04:03:40;1.10;;;1.03;;
17614;SDS011;8926;49.720;6.576;2023-08-07T04:06:06;1.03;;;1.03;;
17614;SDS011;8926;49.720;6.576;2023-08-07T04:08:31;1.00;;;1.00;;
17614;SDS011;8926;49.720;6.576;2023-08-07T04:11:03;1.13;;;1.03;;
17614;SDS011;8926;49.720;6.576;2023-08-07T04:13:29;0.90;;;0.90;;
17614;SDS011;8926;49.720;6.576;2023-08-07T04:15:56;0.90;;;0.90;;
17614;SDS011;8926;49.720;6.576;2023-08-07T04:18:23;0.97;;;0.93;;
17614;SDS011;8926;49.720;6.576;2023-08-07T04:20:52;1.73;;;1.27;;
17614;SDS011;8926;49.720;6.576;2023-08-07T04:23:18;1.07;;;0.93;;
17614;SDS011;8926;49.720;6.576;2023-08-07T04:25:44;1.03;;;0.97;;
17614;SDS011;8926;49.720;6.576;2023-08-07T04:28:11;1.40;;;1.10;;
17614;SDS011;8926;49.720;6.576;2023-08-07T04:30:36;1.00;;;1.00;;
17614;SDS011;8926;49.720;6.576;2023-08-07T04:33:01;1.30;;;0.90;;
17614;SDS011;8926;49.720;6.576;2023-08-07T04:35:27;1.33;;;1.20;;
17614;SDS011;8926;49.720;6.576;2023-08-07T04:37:52;0.90;;;0.90;;
17614;SDS011;8926;49.720;6.576;2023-08-07T04:40:18;0.90;;;0.90;;
17614;SDS011;8926;49.720;6.576;2023-08-07T04:42:43;1.30;;;1.10;;
17614;SDS011;8926;49.720;6.576;2023-08-07T04:45:09;1.10;;;1.10;;
17614;SDS011;8926;49.720;6.576;2023-08-07T04:47:34;0.90;;;0.90;;
17614;SDS011;8926;49.720;6.576;2023-08-07T04:50:00;1.30;;;1.20;;
17614;SDS011;8926;49.720;6.576;2023-08-07T04:52:26;1.00;;;1.00;;
17614;SDS011;8926;49.720;6.576;2023-08-07T04:54:51;2.33;;;1.30;;
17614;SDS011;8926;49.720;6.576;2023-08-07T04:57:16;1.00;;;1.00;;
17614;SDS011;8926;49.720;6.576;2023-08-07T04:59:41;1.03;;;1.03;;
17614;SDS011;8926;49.720;6.576;2023-08-07T05:02:07;1.77;;;1.10;;
17614;SDS011;8926;49.720;6.576;2023-08-07T05:04:32;1.63;;;1.10;;
17614;SDS011;8926;49.720;6.576;2023-08-07T05:06:58;0.97;;;0.97;;
17614;SDS011;8926;49.720;6.576;2023-08-07T05:09:23;1.43;;;1.03;;
17614;SDS011;8926;49.720;6.576;2023-08-07T05:11:48;1.10;;;1.10;;
17614;SDS011;8926;49.720;6.576;2023-08-07T05:14:13;1.10;;;1.00;;
17614;SDS011;8926;49.720;6.576;2023-08-07T05:16:39;1.17;;;1.10;;
17614;SDS011;8926;49.720;6.576;2023-08-07T05:19:04;5.47;;;1.00;;
17614;SDS011;8926;49.720;6.576;2023-08-07T05:21:29;1.03;;;1.00;;
17614;SDS011;8926;49.720;6.576;2023-08-07T05:23:55;1.00;;;1.00;;
17614;SDS011;8926;49.720;6.576;2023-08-07T05:26:21;0.97;;;0.97;;
17614;SDS011;8926;49.720;6.576;2023-08-07T05:28:46;1.47;;;1.20;;
17614;SDS011;8926;49.720;6.576;2023-08-07T05:31:11;1.60;;;0.70;;
17614;SDS011;8926;49.720;6.576;2023-08-07T05:33:37;2.27;;;1.20;;
17614;SDS011;8926;49.720;6.576;2023-08-07T05:36:02;1.30;;;1.30;;
17614;SDS011;8926;49.720;6.576;2023-08-07T05:38:27;1.17;;;1.17;;
17614;SDS011;8926;49.720;6.576;2023-08-07T05:40:53;1.30;;;1.20;;
17614;SDS011;8926;49.720;6.576;2023-08-07T05:43:18;1.10;;;1.00;;
17614;SDS011;8926;49.720;6.576;2023-08-07T05:45:43;1.10;;;1.00;;
17614;SDS011;8926;49.720;6.576;2023-08-07T05:48:11;1.30;;;1.20;;
17614;SDS011;8926;49.720;6.576;2023-08-07T05:50:36;1.40;;;1.30;;
17614;SDS011;8926;49.720;6.576;2023-08-07T05:53:02;1.20;;;1.00;;
17614;SDS011;8926;49.720;6.576;2023-08-07T05:55:28;1.27;;;1.07;;
17614;SDS011;8926;49.720;6.576;2023-08-07T05:57:53;0.83;;;0.80;;
17614;SDS011;8926;49.720;6.576;2023-08-07T06:00:18;0.80;;;0.80;;
17614;SDS011;8926;49.720;6.576;2023-08-07T06:02:44;1.23;;;1.13;;
17614;SDS011;8926;49.720;6.576;2023-08-07T06:05:11;1.00;;;1.00;;
17614;SDS011;8926;49.720;6.576;2023-08-07T06:07:38;1.20;;;1.07;;
17614;SDS011;8926;49.720;6.576;2023-08-07T06:10:04;1.40;;;1.30;;
17614;SDS011;8926;49.720;6.576;2023-08-07T06:12:30;1.20;;;1.10;;
17614;SDS011;8926;49.720;6.576;2023-08-07T06:14:55;1.20;;;1.10;;
17614;SDS011;8926;49.720;6.576;2023-08-07T06:17:20;1.10;;;1.00;;
17614;SDS011;8926;49.720;6.576;2023-08-07T06:19:45;0.97;;;0.87;;
17614;SDS011;8926;49.720;6.576;2023-08-07T06:22:11;0.83;;;0.83;;
17614;SDS011;8926;49.720;6.576;2023-08-07T06:24:36;1.47;;;1.37;;
17614;SDS011;8926;49.720;6.576;2023-08-07T06:27:02;1.60;;;1.50;;
17614;SDS011;8926;49.720;6.576;2023-08-07T06:29:28;1.90;;;1.17;;
17614;SDS011;8926;49.720;6.576;2023-08-07T06:31:53;1.43;;;1.30;;
17614;SDS011;8926;49.720;6.576;2023-08-07T06:34:18;2.60;;;1.40;;
17614;SDS011;8926;49.720;6.576;2023-08-07T06:36:44;2.00;;;1.67;;
17614;SDS011;8926;49.720;6.576;2023-08-07T06:39:09;1.93;;;1.63;;
17614;SDS011;8926;49.720;6.576;2023-08-07T06:41:35;1.47;;;1.20;;
17614;SDS011;8926;49.720;6.576;2023-08-07T06:44:00;2.07;;;1.50;;
17614;SDS011;8926;49.720;6.576;2023-08-07T06:46:26;2.53;;;1.60;;
17614;SDS011;8926;49.720;6.576;2023-08-07T06:48:52;2.80;;;1.60;;
17614;SDS011;8926;49.720;6.576;2023-08-07T06:51:18;1.70;;;1.20;;
17614;SDS011;8926;49.720;6.576;2023-08-07T06:53:43;2.37;;;1.27;;
17614;SDS011;8926;49.720;6.576;2023-08-07T06:56:08;1.53;;;1.43;;
17614;SDS011;8926;49.720;6.576;2023-08-07T06:58:34;2.40;;;1.53;;
17614;SDS011;8926;49.720;6.576;2023-08-07T07:00:59;2.63;;;1.27;;
17614;SDS011;8926;49.720;6.576;2023-08-07T07:03:24;3.10;;;1.50;;
17614;SDS011;8926;49.720;6.576;2023-08-07T07:05:49;1.13;;;1.03;;
17614;SDS011;8926;49.720;6.576;2023-08-07T07:08:15;1.13;;;1.07;;
17614;SDS011;8926;49.720;6.576;2023-08-07T07:10:40;0.97;;;0.93;;
17614;SDS011;8926;49.720;6.576;2023-08-07T07:13:06;2.10;;;1.33;;
17614;SDS011;8926;49.720;6.576;2023-08-07T07:15:33;1.60;;;1.50;;
17614;SDS011;8926;49.720;6.576;2023-08-07T07:17:58;2.30;;;1.63;;
17614;SDS011;8926;49.720;6.576;2023-08-07T07:20:24;1.47;;;1.37;;
17614;SDS011;8926;49.720;6.576;2023-08-07T07:22:50;1.20;;;1.10;;
17614;SDS011;8926;49.720;6.576;2023-08-07T07:25:15;2.07;;;1.30;;
17614;SDS011;8926;49.720;6.576;2023-08-07T07:27:41;2.30;;;1.50;;
17614;SDS011;8926;49.720;6.576;2023-08-07T07:30:06;1.77;;;1.27;;
17614;SDS011;8926;49.720;6.576;2023-08-07T07:32:32;1.63;;;1.50;;
17614;SDS011;8926;49.720;6.576;2023-08-07T07:34:58;1.30;;;1.20;;
17614;SDS011;8926;49.720;6.576;2023-08-07T07:37:23;2.87;;;1.60;;
17614;SDS011;8926;49.720;6.576;2023-08-07T07:39:48;1.33;;;1.23;;
17614;SDS011;8926;49.720;6.576;2023-08-07T07:42:13;1.67;;;1.57;;
17614;SDS011;8926;49.720;6.576;2023-08-07T07:44:39;1.67;;;1.10;;
17614;SDS011;8926;49.720;6.576;2023-08-07T07:47:05;2.73;;;1.50;;
17614;SDS011;8926;49.720;6.576;2023-08-07T07:49:32;1.30;;;1.20;;
17614;SDS011;8926;49.720;6.576;2023-08-07T07:51:57;1.50;;;1.40;;
17614;SDS011;8926;49.720;6.576;2023-08-07T07:54:23;2.87;;;1.50;;
17614;SDS011;8926;49.720;6.576;2023-08-07T07:56:48;2.67;;;1.63;;
17614;SDS011;8926;49.720;6.576;2023-08-07T07:59:13;2.13;;;1.80;;
17614;SDS011;8926;49.720;6.576;2023-08-07T08:01:39;1.40;;;1.30;;
17614;SDS011;8926;49.720;6.576;2023-08-07T08:04:05;2.00;;;1.20;;
17614;SDS011;8926;49.720;6.576;2023-08-07T08:06:31;1.10;;;1.00;;
17614;SDS011;8926;49.720;6.576;2023-08-07T08:08:56;1.47;;;1.23;;
17614;SDS011;8926;49.720;6.576;2023-08-07T08:11:22;2.60;;;1.30;;
17614;SDS011;8926;49.720;6.576;2023-08-07T08:13:47;1.67;;;1.40;;
17614;SDS011;8926;49.720;6.576;2023-08-07T08:16:13;1.20;;;1.10;;
17614;SDS011;8926;49.720;6.576;2023-08-07T08:18:38;1.30;;;1.20;;
17614;SDS011;8926;49.720;6.576;2023-08-07T08:21:03;1.87;;;1.60;;
17614;SDS011;8926;49.720;6.576;2023-08-07T08:23:28;1.37;;;1.20;;
17614;SDS011;8926;49.720;6.576;2023-08-07T08:25:54;1.30;;;1.20;;
17614;SDS011;8926;49.720;6.576;2023-08-07T08:28:19;1.93;;;1.50;;
17614;SDS011;8926;49.720;6.576;2023-08-07T08:30:45;1.07;;;1.03;;
17614;SDS011;8926;49.720;6.576;2023-08-07T08:33:10;1.57;;;1.47;;
17614;SDS011;8926;49.720;6.576;2023-08-07T08:35:39;0.93;;;0.93;;
17614;SDS011;8926;49.720;6.576;2023-08-07T08:38:04;1.40;;;1.30;;
17614;SDS011;8926;49.720;6.576;2023-08-07T08:40:33;1.20;;;1.20;;
17614;SDS011;8926;49.720;6.576;2023-08-07T08:43:01;1.70;;;1.00;;
17614;SDS011;8926;49.720;6.576;2023-08-07T08:45:27;1.70;;;1.10;;
17614;SDS011;8926;49.720;6.576;2023-08-07T08:48:00;1.83;;;1.30;;
17614;SDS011;8926;49.720;6.576;2023-08-07T08:50:27;1.03;;;1.00;;
17614;SDS011;8926;49.720;6.576;2023-08-07T08:52:53;3.13;;;1.20;;
17614;SDS011;8926;49.720;6.576;2023-08-07T08:55:20;1.77;;;1.20;;
17614;SDS011;8926;49.720;6.576;2023-08-07T08:57:46;1.20;;;1.10;;
17614;SDS011;8926;49.720;6.576;2023-08-07T09:00:13;1.13;;;0.90;;
17614;SDS011;8926;49.720;6.576;2023-08-07T09:02:50;1.23;;;0.77;;
17614;SDS011;8926;49.720;6.576;2023-08-07T09:05:17;0.80;;;0.80;;
17614;SDS011;8926;49.720;6.576;2023-08-07T09:07:45;0.80;;;0.80;;
17614;SDS011;8926;49.720;6.576;2023-08-07T09:10:12;0.80;;;0.80;;
17614;SDS011;8926;49.720;6.576;2023-08-07T09:13:00;1.20;;;1.10;;
17614;SDS011;8926;49.720;6.576;2023-08-07T09:15:31;0.97;;;0.97;;
17614;SDS011;8926;49.720;6.576;2023-08-07T09:17:58;0.83;;;0.83;;
17614;SDS011;8926;49.720;6.576;2023-08-07T09:20:25;0.90;;;0.90;;
17614;SDS011;8926;49.720;6.576;2023-08-07T09:22:51;1.17;;;0.90;;
17614;SDS011;8926;49.720;6.576;2023-08-07T09:27:58;1.50;;;0.90;;
17614;SDS011;8926;49.720;6.576;2023-08-07T09:30:29;1.03;;;0.60;;
17614;SDS011;8926;49.720;6.576;2023-08-07T09:32:58;1.23;;;1.00;;
17614;SDS011;8926;49.720;6.576;2023-08-07T09:35:24;1.03;;;0.90;;
17614;SDS011;8926;49.720;6.576;2023-08-07T09:37:50;0.77;;;0.77;;
17614;SDS011;8926;49.720;6.576;2023-08-07T09:40:15;0.70;;;0.70;;
17614;SDS011;8926;49.720;6.576;2023-08-07T09:42:41;0.87;;;0.80;;
17614;SDS011;8926;49.720;6.576;2023-08-07T09:45:40;1.10;;;1.00;;
17614;SDS011;8926;49.720;6.576;2023-08-07T09:48:02;0.90;;;0.80;;
17614;SDS011;8926;49.720;6.576;2023-08-07T09:50:29;1.10;;;1.00;;
17614;SDS011;8926;49.720;6.576;2023-08-07T09:52:55;0.77;;;0.67;;
17614;SDS011;8926;49.720;6.576;2023-08-07T09:55:21;1.07;;;0.97;;
17614;SDS011;8926;49.720;6.576;2023-08-07T09:57:47;1.50;;;1.07;;
17614;SDS011;8926;49.720;6.576;2023-08-07T10:00:14;1.53;;;1.00;;
17614;SDS011;8926;49.720;6.576;2023-08-07T10:02:40;0.80;;;0.80;;
17614;SDS011;8926;49.720;6.576;2023-08-07T10:05:07;0.70;;;0.70;;
17614;SDS011;8926;49.720;6.576;2023-08-07T10:07:33;0.80;;;0.80;;
17614;SDS011;8926;49.720;6.576;2023-08-07T10:09:59;0.60;;;0.60;;
17614;SDS011;8926;49.720;6.576;2023-08-07T10:12:28;1.07;;;0.97;;
17614;SDS011;8926;49.720;6.576;2023-08-07T10:14:54;0.80;;;0.80;;
17614;SDS011;8926;49.720;6.576;2023-08-07T10:17:22;1.00;;;0.90;;
17614;SDS011;8926;49.720;6.576;2023-08-07T10:19:48;1.10;;;1.00;;
17614;SDS011;8926;49.720;6.576;2023-08-07T10:22:14;0.60;;;0.60;;
17614;SDS011;8926;49.720;6.576;2023-08-07T10:24:40;0.70;;;0.70;;
17614;SDS011;8926;49.720;6.576;2023-08-07T10:27:08;0.70;;;0.70;;
17614;SDS011;8926;49.720;6.576;2023-08-07T10:29:36;0.93;;;0.90;;
17614;SDS011;8926;49.720;6.576;2023-08-07T10:32:05;1.20;;;1.10;;
17614;SDS011;8926;49.720;6.576;2023-08-07T10:34:36;2.00;;;1.03;;
17614;SDS011;8926;49.720;6.576;2023-08-07T10:37:02;1.17;;;1.07;;
17614;SDS011;8926;49.720;6.576;2023-08-07T10:39:30;0.80;;;0.80;;
17614;SDS011;8926;49.720;6.576;2023-08-07T10:41:56;0.70;;;0.70;;
17614;SDS011;8926;49.720;6.576;2023-08-07T10:44:22;1.20;;;1.10;;
17614;SDS011;8926;49.720;6.576;2023-08-07T10:46:53;1.50;;;1.40;;
17614;SDS011;8926;49.720;6.576;2023-08-07T10:49:35;1.13;;;1.00;;
17614;SDS011;8926;49.720;6.576;2023-08-07T10:52:08;2.20;;;1.40;;
17614;SDS011;8926;49.720;6.576;2023-08-07T10:54:41;0.77;;;0.77;;
17614;SDS011;8926;49.720;6.576;2023-08-07T10:57:11;0.80;;;0.80;;
17614;SDS011;8926;49.720;6.576;2023-08-07T11:02:24;0.70;;;0.70;;
17614;SDS011;8926;49.720;6.576;2023-08-07T11:04:51;1.70;;;1.00;;
17614;SDS011;8926;49.720;6.576;2023-08-07T11:07:27;0.80;;;0.73;;
17614;SDS011;8926;49.720;6.576;2023-08-07T11:09:54;1.70;;;1.20;;
17614;SDS011;8926;49.720;6.576;2023-08-07T11:12:20;1.63;;;1.20;;
17614;SDS011;8926;49.720;6.576;2023-08-07T11:14:46;1.47;;;1.07;;
17614;SDS011;8926;49.720;6.576;2023-08-07T11:17:12;1.23;;;1.10;;
17614;SDS011;8926;49.720;6.576;2023-08-07T11:19:38;1.50;;;1.00;;
17614;SDS011;8926;49.720;6.576;2023-08-07T11:22:04;1.00;;;1.00;;
17614;SDS011;8926;49.720;6.576;2023-08-07T11:24:30;1.00;;;1.00;;
17614;SDS011;8926;49.720;6.576;2023-08-07T11:26:55;1.33;;;1.20;;
17614;SDS011;8926;49.720;6.576;2023-08-07T11:29:21;0.90;;;0.90;;
17614;SDS011;8926;49.720;6.576;2023-08-07T11:31:49;0.83;;;0.80;;
17614;SDS011;8926;49.720;6.576;2023-08-07T11:34:16;1.40;;;1.10;;
17614;SDS011;8926;49.720;6.576;2023-08-07T11:36:43;0.80;;;0.80;;
17614;SDS011;8926;49.720;6.576;2023-08-07T11:39:09;1.17;;;1.00;;
17614;SDS011;8926;49.720;6.576;2023-08-07T11:41:35;0.90;;;0.90;;
17614;SDS011;8926;49.720;6.576;2023-08-07T11:44:00;0.80;;;0.80;;
17614;SDS011;8926;49.720;6.576;2023-08-07T11:46:25;0.87;;;0.87;;
17614;SDS011;8926;49.720;6.576;2023-08-07T11:48:51;0.60;;;0.60;;
17614;SDS011;8926;49.720;6.576;2023-08-07T11:51:17;0.70;;;0.70;;
17614;SDS011;8926;49.720;6.576;2023-08-07T11:53:44;0.70;;;0.70;;
17614;SDS011;8926;49.720;6.576;2023-08-07T11:56:11;1.00;;;0.90;;
17614;SDS011;8926;49.720;6.576;2023-08-07T11:58:41;1.07;;;1.00;;
17614;SDS011;8926;49.720;6.576;2023-08-07T12:01:11;0.63;;;0.63;;
17614;SDS011;8926;49.720;6.576;2023-08-07T12:03:38;0.73;;;0.73;;
17614;SDS011;8926;49.720;6.576;2023-08-07T12:06:07;0.60;;;0.60;;
17614;SDS011;8926;49.720;6.576;2023-08-07T12:08:37;0.90;;;0.90;;
17614;SDS011;8926;49.720;6.576;2023-08-07T12:11:05;0.70;;;0.70;;
17614;SDS011;8926;49.720;6.576;2023-08-07T12:13:31;1.30;;;1.17;;
17614;SDS011;8926;49.720;6.576;2023-08-07T12:16:00;0.70;;;0.70;;
17614;SDS011;8926;49.720;6.576;2023-08-07T12:18:27;0.90;;;0.90;;
17614;SDS011;8926;49.720;6.576;2023-08-07T12:20:56;0.87;;;0.87;;
17614;SDS011;8926;49.720;6.576;2023-08-07T12:23:23;0.67;;;0.67;;
17614;SDS011;8926;49.720;6.576;2023-08-07T12:25:48;1.00;;;0.90;;
17614;SDS011;8926;49.720;6.576;2023-08-07T12:28:14;0.90;;;0.90;;
17614;SDS011;8926;49.720;6.576;2023-08-07T12:30:42;1.00;;;0.90;;
17614;SDS011;8926;49.720;6.576;2023-08-07T12:33:10;0.70;;;0.70;;
17614;SDS011;8926;49.720;6.576;2023-08-07T12:35:35;0.50;;;0.50;;
17614;SDS011;8926;49.720;6.576;2023-08-07T12:38:01;0.70;;;0.70;;
17614;SDS011;8926;49.720;6.576;2023-08-07T12:40:30;0.70;;;0.70;;
17614;SDS011;8926;49.720;6.576;2023-08-07T12:42:56;0.60;;;0.60;;
17614;SDS011;8926;49.720;6.576;2023-08-07T12:45:21;0.80;;;0.70;;
17614;SDS011;8926;49.720;6.576;2023-08-07T12:47:46;0.50;;;0.50;;
17614;SDS011;8926;49.720;6.576;2023-08-07T12:50:12;0.63;;;0.63;;
17614;SDS011;8926;49.720;6.576;2023-08-07T12:52:37;0.80;;;0.80;;
17614;SDS011;8926;49.720;6.576;2023-08-07T12:55:03;1.10;;;1.00;;
17614;SDS011;8926;49.720;6.576;2023-08-07T12:57:30;1.00;;;0.90;;
17614;SDS011;8926;49.720;6.576;2023-08-07T12:59:55;0.70;;;0.70;;
17614;SDS011;8926;49.720;6.576;2023-08-07T13:02:21;0.97;;;0.97;;
17614;SDS011;8926;49.720;6.576;2023-08-07T13:04:46;1.10;;;1.00;;
17614;SDS011;8926;49.720;6.576;2023-08-07T13:07:11;1.20;;;1.10;;
17614;SDS011;8926;49.720;6.576;2023-08-07T13:09:37;1.30;;;1.20;;
17614;SDS011;8926;49.720;6.576;2023-08-07T13:12:02;0.70;;;0.70;;
17614;SDS011;8926;49.720;6.576;2023-08-07T13:14:28;1.00;;;1.00;;
17614;SDS011;8926;49.720;6.576;2023-08-07T13:16:53;0.80;;;0.80;;
17614;SDS011;8926;49.720;6.576;2023-08-07T13:19:18;0.50;;;0.50;;
17614;SDS011;8926;49.720;6.576;2023-08-07T13:21:44;0.70;;;0.70;;
17614;SDS011;8926;49.720;6.576;2023-08-07T13:24:09;0.53;;;0.53;;
17614;SDS011;8926;49.720;6.576;2023-08-07T13:26:34;0.70;;;0.70;;
17614;SDS011;8926;49.720;6.576;2023-08-07T13:29:00;0.80;;;0.80;;
17614;SDS011;8926;49.720;6.576;2023-08-07T13:31:25;0.87;;;0.87;;
17614;SDS011;8926;49.720;6.576;2023-08-07T13:33:50;1.10;;;1.00;;
17614;SDS011;8926;49.720;6.576;2023-08-07T13:36:16;0.63;;;0.63;;
17614;SDS011;8926;49.720;6.576;2023-08-07T13:38:41;0.90;;;0.90;;
17614;SDS011;8926;49.720;6.576;2023-08-07T13:41:06;0.90;;;0.90;;
17614;SDS011;8926;49.720;6.576;2023-08-07T13:43:32;0.97;;;0.97;;
17614;SDS011;8926;49.720;6.576;2023-08-07T13:45:58;2.57;;;1.27;;
17614;SDS011;8926;49.720;6.576;2023-08-07T13:48:23;0.90;;;0.90;;
17614;SDS011;8926;49.720;6.576;2023-08-07T13:50:51;1.23;;;0.90;;
17614;SDS011;8926;49.720;6.576;2023-08-07T13:53:17;0.80;;;0.80;;
17614;SDS011;8926;49.720;6.576;2023-08-07T13:55:43;0.63;;;0.63;;
17614;SDS011;8926;49.720;6.576;2023-08-07T13:58:08;1.20;;;1.10;;
17614;SDS011;8926;49.720;6.576;2023-08-07T14:00:34;1.10;;;1.10;;
17614;SDS011;8926;49.720;6.576;2023-08-07T14:03:00;0.90;;;0.90;;
17614;SDS011;8926;49.720;6.576;2023-08-07T14:05:25;0.80;;;0.80;;
17614;SDS011;8926;49.720;6.576;2023-08-07T14:07:51;1.20;;;1.20;;
17614;SDS011;8926;49.720;6.576;2023-08-07T14:10:18;1.70;;;1.03;;
17614;SDS011;8926;49.720;6.576;2023-08-07T14:12:43;0.83;;;0.83;;
17614;SDS011;8926;49.720;6.576;2023-08-07T14:15:08;0.57;;;0.57;;
17614;SDS011;8926;49.720;6.576;2023-08-07T14:17:34;0.60;;;0.60;;
17614;SDS011;8926;49.720;6.576;2023-08-07T14:19:59;0.73;;;0.73;;
17614;SDS011;8926;49.720;6.576;2023-08-07T14:22:25;0.80;;;0.77;;
17614;SDS011;8926;49.720;6.576;2023-08-07T14:24:50;1.40;;;0.80;;
17614;SDS011;8926;49.720;6.576;2023-08-07T14:27:15;0.80;;;0.70;;
17614;SDS011;8926;49.720;6.576;2023-08-07T14:29:40;0.60;;;0.60;;
17614;SDS011;8926;49.720;6.576;2023-08-07T14:32:06;0.40;;;0.40;;
17614;SDS011;8926;49.720;6.576;2023-08-07T14:34:31;0.50;;;0.50;;
17614;SDS011;8926;49.720;6.576;2023-08-07T14:36:56;0.60;;;0.60;;
17614;SDS011;8926;49.720;6.576;2023-08-07T14:39:22;0.70;;;0.70;;
17614;SDS011;8926;49.720;6.576;2023-08-07T14:41:47;0.57;;;0.57;;
17614;SDS011;8926;49.720;6.576;2023-08-07T14:44:13;0.40;;;0.40;;
17614;SDS011;8926;49.720;6.576;2023-08-07T14:46:38;0.50;;;0.40;;
17614;SDS011;8926;49.720;6.576;2023-08-07T14:49:04;0.40;;;0.40;;
17614;SDS011;8926;49.720;6.576;2023-08-07T14:51:29;0.57;;;0.57;;
17614;SDS011;8926;49.720;6.576;2023-08-07T14:53:54;0.50;;;0.50;;
17614;SDS011;8926;49.720;6.576;2023-08-07T14:56:19;0.40;;;0.40;;
17614;SDS011;8926;49.720;6.576;2023-08-07T14:58:45;0.60;;;0.60;;
17614;SDS011;8926;49.720;6.576;2023-08-07T15:01:10;1.20;;;0.90;;
17614;SDS011;8926;49.720;6.576;2023-08-07T15:03:36;0.87;;;0.87;;
17614;SDS011;8926;49.720;6.576;2023-08-07T15:06:01;2.00;;;0.93;;
17614;SDS011;8926;49.720;6.576;2023-08-07T15:08:26;0.93;;;0.90;;